sensor_id;sensor_type;location;lat;lon;timestamp;temperature;humidity
47600;DHT22;33323;52.124;6.018;2022-12-29T00:00:00;10.60;99.90
47600;DHT22;33323;52.124;6.018;2022-12-29T00:02:38;10.70;99.90
47600;DHT22;33323;52.124;6.018;2022-12-29T00:05:06;10.70;99.90
47600;DHT22;33323;52.124;6.018;2022-12-29T00:07:33;10.70;99.90
47600;DHT22;33323;52.124;6.018;2022-12-29T00:10:00;10.70;99.90
47600;DHT22;33323;52.124;6.018;2022-12-29T00:12:28;10.70;99.90
47600;DHT22;33323;52.124;6.018;2022-12-29T00:15:15;10.70;99.90
47600;DHT22;33323;52.124;6.018;2022-12-29T00:18:01;10.70;99.90
47600;DHT22;33323;52.124;6.018;2022-12-29T00:20:28;10.70;99.90
47600;DHT22;33323;52.124;6.018;2022-12-29T00:23:13;10.80;99.90
47600;DHT22;33323;52.124;6.018;2022-12-29T00:26:03;10.70;99.90
47600;DHT22;33323;52.124;6.018;2022-12-29T00:28:50;10.80;99.90
47600;DHT22;33323;52.124;6.018;2022-12-29T00:31:35;10.80;99.90
47600;DHT22;33323;52.124;6.018;2022-12-29T00:34:21;10.80;99.90
47600;DHT22;33323;52.124;6.018;2022-12-29T00:37:06;10.80;99.90
47600;DHT22;33323;52.124;6.018;2022-12-29T00:39:33;10.80;99.90
47600;DHT22;33323;52.124;6.018;2022-12-29T00:42:19;10.80;99.90
47600;DHT22;33323;52.124;6.018;2022-12-29T00:45:05;10.80;99.90
47600;DHT22;33323;52.124;6.018;2022-12-29T00:47:32;10.70;99.90
47600;DHT22;33323;52.124;6.018;2022-12-29T00:49:59;10.70;99.90
47600;DHT22;33323;52.124;6.018;2022-12-29T00:52:26;10.70;99.90
47600;DHT22;33323;52.124;6.018;2022-12-29T00:54:53;10.80;99.90
47600;DHT22;33323;52.124;6.018;2022-12-29T00:57:20;10.70;99.90
47600;DHT22;33323;52.124;6.018;2022-12-29T00:59:47;10.70;99.90
47600;DHT22;33323;52.124;6.018;2022-12-29T01:02:15;10.70;99.90
47600;DHT22;33323;52.124;6.018;2022-12-29T01:04:42;10.70;99.90
47600;DHT22;33323;52.124;6.018;2022-12-29T01:07:10;10.70;99.90
47600;DHT22;33323;52.124;6.018;2022-12-29T01:09:37;10.70;99.90
47600;DHT22;33323;52.124;6.018;2022-12-29T01:12:22;10.70;99.90
47600;DHT22;33323;52.124;6.018;2022-12-29T01:15:10;10.70;99.90
47600;DHT22;33323;52.124;6.018;2022-12-29T01:17:40;10.70;99.90
47600;DHT22;33323;52.124;6.018;2022-12-29T01:20:08;10.70;99.90
47600;DHT22;33323;52.124;6.018;2022-12-29T01:22:36;10.80;99.90
47600;DHT22;33323;52.124;6.018;2022-12-29T01:25:04;10.80;99.90
47600;DHT22;33323;52.124;6.018;2022-12-29T01:27:32;10.80;99.90
47600;DHT22;33323;52.124;6.018;2022-12-29T01:29:59;10.80;99.90
47600;DHT22;33323;52.124;6.018;2022-12-29T01:32:26;10.70;99.90
47600;DHT22;33323;52.124;6.018;2022-12-29T01:34:53;10.70;99.90
47600;DHT22;33323;52.124;6.018;2022-12-29T01:37:20;10.70;99.90
47600;DHT22;33323;52.124;6.018;2022-12-29T01:39:47;10.70;99.90
47600;DHT22;33323;52.124;6.018;2022-12-29T01:42:19;10.60;99.90
47600;DHT22;33323;52.124;6.018;2022-12-29T01:44:55;10.60;99.90
47600;DHT22;33323;52.124;6.018;2022-12-29T01:50:20;10.60;99.90
47600;DHT22;33323;52.124;6.018;2022-12-29T01:53:15;10.60;99.90
47600;DHT22;33323;52.124;6.018;2022-12-29T01:55:51;10.70;99.90
47600;DHT22;33323;52.124;6.018;2022-12-29T01:58:23;10.80;99.90
47600;DHT22;33323;52.124;6.018;2022-12-29T02:00:51;10.90;99.90
47600;DHT22;33323;52.124;6.018;2022-12-29T02:03:20;10.90;99.90
47600;DHT22;33323;52.124;6.018;2022-12-29T02:06:11;10.80;99.90
47600;DHT22;33323;52.124;6.018;2022-12-29T02:08:46;10.80;99.90
47600;DHT22;33323;52.124;6.018;2022-12-29T02:11:14;10.80;99.90
47600;DHT22;33323;52.124;6.018;2022-12-29T02:13:42;10.70;99.90
47600;DHT22;33323;52.124;6.018;2022-12-29T02:28:28;10.60;99.90
47600;DHT22;33323;52.124;6.018;2022-12-29T02:37:27;10.60;99.90
47600;DHT22;33323;52.124;6.018;2022-12-29T02:46:12;10.60;99.90
47600;DHT22;33323;52.124;6.018;2022-12-29T02:49:20;10.50;99.90
47600;DHT22;33323;52.124;6.018;2022-12-29T02:52:04;10.50;99.90
47600;DHT22;33323;52.124;6.018;2022-12-29T02:54:49;10.40;99.90
47600;DHT22;33323;52.124;6.018;2022-12-29T02:59:53;10.30;99.90
47600;DHT22;33323;52.124;6.018;2022-12-29T03:08:55;10.00;99.90
47600;DHT22;33323;52.124;6.018;2022-12-29T03:15:27;9.90;99.90
47600;DHT22;33323;52.124;6.018;2022-12-29T03:18:24;10.00;99.90
47600;DHT22;33323;52.124;6.018;2022-12-29T03:20:58;10.00;99.90
47600;DHT22;33323;52.124;6.018;2022-12-29T03:23:29;10.10;99.90
47600;DHT22;33323;52.124;6.018;2022-12-29T03:26:00;10.10;99.90
47600;DHT22;33323;52.124;6.018;2022-12-29T03:28:36;10.20;99.90
47600;DHT22;33323;52.124;6.018;2022-12-29T03:31:06;10.10;99.90
47600;DHT22;33323;52.124;6.018;2022-12-29T03:33:36;10.10;99.90
47600;DHT22;33323;52.124;6.018;2022-12-29T03:36:08;10.10;99.90
47600;DHT22;33323;52.124;6.018;2022-12-29T03:39:04;10.20;99.90
47600;DHT22;33323;52.124;6.018;2022-12-29T03:41:42;10.20;99.90
47600;DHT22;33323;52.124;6.018;2022-12-29T03:44:13;10.30;99.90
47600;DHT22;33323;52.124;6.018;2022-12-29T03:46:40;10.20;99.90
47600;DHT22;33323;52.124;6.018;2022-12-29T03:49:08;10.20;99.90
47600;DHT22;33323;52.124;6.018;2022-12-29T03:51:35;10.20;99.90
47600;DHT22;33323;52.124;6.018;2022-12-29T03:54:04;10.10;99.90
47600;DHT22;33323;52.124;6.018;2022-12-29T03:56:32;10.10;99.90
47600;DHT22;33323;52.124;6.018;2022-12-29T03:59:01;10.00;99.90
47600;DHT22;33323;52.124;6.018;2022-12-29T04:01:37;10.00;99.90
47600;DHT22;33323;52.124;6.018;2022-12-29T04:04:05;10.00;99.90
47600;DHT22;33323;52.124;6.018;2022-12-29T04:06:32;10.00;99.90
47600;DHT22;33323;52.124;6.018;2022-12-29T04:09:03;9.90;99.90
47600;DHT22;33323;52.124;6.018;2022-12-29T04:11:40;9.90;99.90
47600;DHT22;33323;52.124;6.018;2022-12-29T04:14:07;9.90;99.90
47600;DHT22;33323;52.124;6.018;2022-12-29T04:16:35;10.00;99.90
47600;DHT22;33323;52.124;6.018;2022-12-29T04:19:07;10.00;99.90
47600;DHT22;33323;52.124;6.018;2022-12-29T04:21:37;10.10;99.90
47600;DHT22;33323;52.124;6.018;2022-12-29T04:24:05;10.20;99.90
47600;DHT22;33323;52.124;6.018;2022-12-29T04:26:37;10.20;99.90
47600;DHT22;33323;52.124;6.018;2022-12-29T04:29:27;10.20;99.90
47600;DHT22;33323;52.124;6.018;2022-12-29T04:32:07;10.30;99.90
47600;DHT22;33323;52.124;6.018;2022-12-29T04:34:39;10.30;99.90
47600;DHT22;33323;52.124;6.018;2022-12-29T04:37:07;10.40;99.90
47600;DHT22;33323;52.124;6.018;2022-12-29T04:39:35;10.30;99.90
47600;DHT22;33323;52.124;6.018;2022-12-29T04:42:03;10.30;99.90
47600;DHT22;33323;52.124;6.018;2022-12-29T04:44:31;10.30;99.90
47600;DHT22;33323;52.124;6.018;2022-12-29T04:47:21;10.40;99.90
47600;DHT22;33323;52.124;6.018;2022-12-29T04:49:59;10.40;99.90
47600;DHT22;33323;52.124;6.018;2022-12-29T04:52:42;10.30;99.90
47600;DHT22;33323;52.124;6.018;2022-12-29T04:55:10;10.40;99.90
47600;DHT22;33323;52.124;6.018;2022-12-29T04:57:39;10.40;99.90
47600;DHT22;33323;52.124;6.018;2022-12-29T05:00:12;10.40;99.90
47600;DHT22;33323;52.124;6.018;2022-12-29T05:02:40;10.40;99.90
47600;DHT22;33323;52.124;6.018;2022-12-29T05:05:07;10.50;99.90
47600;DHT22;33323;52.124;6.018;2022-12-29T05:07:40;10.40;99.90
47600;DHT22;33323;52.124;6.018;2022-12-29T05:10:08;10.40;99.90
47600;DHT22;33323;52.124;6.018;2022-12-29T05:12:37;10.40;99.90
47600;DHT22;33323;52.124;6.018;2022-12-29T05:15:06;10.40;99.90
47600;DHT22;33323;52.124;6.018;2022-12-29T05:17:34;10.40;99.90
47600;DHT22;33323;52.124;6.018;2022-12-29T05:20:02;10.40;99.90
47600;DHT22;33323;52.124;6.018;2022-12-29T05:22:32;10.30;99.90
47600;DHT22;33323;52.124;6.018;2022-12-29T05:24:59;10.30;99.90
47600;DHT22;33323;52.124;6.018;2022-12-29T05:27:27;10.20;99.90
47600;DHT22;33323;52.124;6.018;2022-12-29T05:30:09;10.20;99.90
47600;DHT22;33323;52.124;6.018;2022-12-29T05:32:37;10.20;99.90
47600;DHT22;33323;52.124;6.018;2022-12-29T05:35:04;10.20;99.90
47600;DHT22;33323;52.124;6.018;2022-12-29T05:37:32;10.20;99.90
47600;DHT22;33323;52.124;6.018;2022-12-29T05:39:59;10.10;99.90
47600;DHT22;33323;52.124;6.018;2022-12-29T05:42:27;10.00;99.90
47600;DHT22;33323;52.124;6.018;2022-12-29T05:45:23;10.00;99.90
47600;DHT22;33323;52.124;6.018;2022-12-29T05:48:11;9.90;99.90
47600;DHT22;33323;52.124;6.018;2022-12-29T05:51:13;9.80;99.90
47600;DHT22;33323;52.124;6.018;2022-12-29T05:53:48;9.80;99.90
47600;DHT22;33323;52.124;6.018;2022-12-29T05:56:16;9.80;99.90
47600;DHT22;33323;52.124;6.018;2022-12-29T05:58:49;9.70;99.90
47600;DHT22;33323;52.124;6.018;2022-12-29T06:01:17;9.70;99.90
47600;DHT22;33323;52.124;6.018;2022-12-29T06:03:44;9.70;99.90
47600;DHT22;33323;52.124;6.018;2022-12-29T06:06:14;9.80;99.90
47600;DHT22;33323;52.124;6.018;2022-12-29T06:08:43;9.80;99.90
47600;DHT22;33323;52.124;6.018;2022-12-29T06:11:10;9.80;99.90
47600;DHT22;33323;52.124;6.018;2022-12-29T06:13:40;9.80;99.90
47600;DHT22;33323;52.124;6.018;2022-12-29T06:16:09;9.70;99.90
47600;DHT22;33323;52.124;6.018;2022-12-29T06:18:37;9.80;99.90
47600;DHT22;33323;52.124;6.018;2022-12-29T06:21:05;9.80;99.90
47600;DHT22;33323;52.124;6.018;2022-12-29T06:23:32;9.80;99.90
47600;DHT22;33323;52.124;6.018;2022-12-29T06:25:59;9.80;99.90
47600;DHT22;33323;52.124;6.018;2022-12-29T06:28:26;9.80;99.90
47600;DHT22;33323;52.124;6.018;2022-12-29T06:30:53;9.80;99.90
47600;DHT22;33323;52.124;6.018;2022-12-29T06:33:20;9.80;99.90
47600;DHT22;33323;52.124;6.018;2022-12-29T06:35:47;9.80;99.90
47600;DHT22;33323;52.124;6.018;2022-12-29T06:38:15;9.80;99.90
47600;DHT22;33323;52.124;6.018;2022-12-29T06:40:43;9.80;99.90
47600;DHT22;33323;52.124;6.018;2022-12-29T06:43:20;9.80;99.90
47600;DHT22;33323;52.124;6.018;2022-12-29T06:46:13;9.80;99.90
47600;DHT22;33323;52.124;6.018;2022-12-29T06:48:40;9.80;99.90
47600;DHT22;33323;52.124;6.018;2022-12-29T06:51:08;9.80;99.90
47600;DHT22;33323;52.124;6.018;2022-12-29T06:53:36;9.80;99.90
47600;DHT22;33323;52.124;6.018;2022-12-29T06:56:03;9.80;99.90
47600;DHT22;33323;52.124;6.018;2022-12-29T06:58:31;9.70;99.90
47600;DHT22;33323;52.124;6.018;2022-12-29T07:00:58;9.70;99.90
47600;DHT22;33323;52.124;6.018;2022-12-29T07:03:25;9.70;99.90
47600;DHT22;33323;52.124;6.018;2022-12-29T07:05:52;9.70;99.90
47600;DHT22;33323;52.124;6.018;2022-12-29T07:08:21;9.70;99.90
47600;DHT22;33323;52.124;6.018;2022-12-29T07:10:48;9.70;99.90
47600;DHT22;33323;52.124;6.018;2022-12-29T07:13:15;9.70;99.90
47600;DHT22;33323;52.124;6.018;2022-12-29T07:15:42;9.70;99.90
47600;DHT22;33323;52.124;6.018;2022-12-29T07:18:09;9.70;99.90
47600;DHT22;33323;52.124;6.018;2022-12-29T07:20:36;9.70;99.90
47600;DHT22;33323;52.124;6.018;2022-12-29T07:23:03;9.70;99.90
47600;DHT22;33323;52.124;6.018;2022-12-29T07:25:30;9.50;99.90
47600;DHT22;33323;52.124;6.018;2022-12-29T07:27:57;9.30;99.90
47600;DHT22;33323;52.124;6.018;2022-12-29T07:30:24;9.10;99.90
47600;DHT22;33323;52.124;6.018;2022-12-29T07:32:51;9.00;99.90
47600;DHT22;33323;52.124;6.018;2022-12-29T07:35:18;8.90;99.90
47600;DHT22;33323;52.124;6.018;2022-12-29T07:37:45;8.70;99.90
47600;DHT22;33323;52.124;6.018;2022-12-29T07:40:12;8.70;99.90
47600;DHT22;33323;52.124;6.018;2022-12-29T07:42:39;8.60;99.90
47600;DHT22;33323;52.124;6.018;2022-12-29T07:45:08;8.60;99.90
47600;DHT22;33323;52.124;6.018;2022-12-29T07:47:48;8.60;99.90
47600;DHT22;33323;52.124;6.018;2022-12-29T07:50:16;8.60;99.90
47600;DHT22;33323;52.124;6.018;2022-12-29T07:52:44;8.60;99.90
47600;DHT22;33323;52.124;6.018;2022-12-29T07:55:12;8.60;99.90
47600;DHT22;33323;52.124;6.018;2022-12-29T07:57:40;8.60;99.90
47600;DHT22;33323;52.124;6.018;2022-12-29T08:00:08;8.60;99.90
47600;DHT22;33323;52.124;6.018;2022-12-29T08:02:39;8.60;99.90
47600;DHT22;33323;52.124;6.018;2022-12-29T08:05:06;8.50;99.90
47600;DHT22;33323;52.124;6.018;2022-12-29T08:07:33;8.40;99.90
47600;DHT22;33323;52.124;6.018;2022-12-29T08:10:00;8.40;99.90
47600;DHT22;33323;52.124;6.018;2022-12-29T08:12:28;8.50;99.90
47600;DHT22;33323;52.124;6.018;2022-12-29T08:14:55;8.60;99.90
47600;DHT22;33323;52.124;6.018;2022-12-29T08:17:22;8.60;99.90
47600;DHT22;33323;52.124;6.018;2022-12-29T08:19:49;8.60;99.90
47600;DHT22;33323;52.124;6.018;2022-12-29T08:22:16;8.70;99.90
47600;DHT22;33323;52.124;6.018;2022-12-29T08:24:43;8.70;99.90
47600;DHT22;33323;52.124;6.018;2022-12-29T08:27:10;8.90;99.90
47600;DHT22;33323;52.124;6.018;2022-12-29T08:29:45;9.10;99.90
47600;DHT22;33323;52.124;6.018;2022-12-29T08:32:12;9.40;99.90
47600;DHT22;33323;52.124;6.018;2022-12-29T08:34:39;9.50;99.90
47600;DHT22;33323;52.124;6.018;2022-12-29T08:37:06;9.50;99.90
47600;DHT22;33323;52.124;6.018;2022-12-29T08:39:33;9.50;99.90
47600;DHT22;33323;52.124;6.018;2022-12-29T08:42:01;9.60;99.90
47600;DHT22;33323;52.124;6.018;2022-12-29T08:44:28;9.60;99.90
47600;DHT22;33323;52.124;6.018;2022-12-29T08:46:55;9.60;99.90
47600;DHT22;33323;52.124;6.018;2022-12-29T08:49:22;9.60;99.90
47600;DHT22;33323;52.124;6.018;2022-12-29T08:51:50;9.60;99.90
47600;DHT22;33323;52.124;6.018;2022-12-29T08:54:17;9.70;99.90
47600;DHT22;33323;52.124;6.018;2022-12-29T08:56:45;9.60;99.90
47600;DHT22;33323;52.124;6.018;2022-12-29T08:59:14;9.50;99.90
47600;DHT22;33323;52.124;6.018;2022-12-29T09:01:42;9.60;99.90
47600;DHT22;33323;52.124;6.018;2022-12-29T09:04:10;9.70;99.90
47600;DHT22;33323;52.124;6.018;2022-12-29T09:06:42;9.80;99.90
47600;DHT22;33323;52.124;6.018;2022-12-29T09:09:10;9.80;99.90
47600;DHT22;33323;52.124;6.018;2022-12-29T09:11:37;9.70;99.90
47600;DHT22;33323;52.124;6.018;2022-12-29T09:14:05;9.70;99.90
47600;DHT22;33323;52.124;6.018;2022-12-29T09:16:36;9.70;99.90
47600;DHT22;33323;52.124;6.018;2022-12-29T09:19:04;9.70;99.90
47600;DHT22;33323;52.124;6.018;2022-12-29T09:21:31;9.70;99.90
47600;DHT22;33323;52.124;6.018;2022-12-29T09:23:58;9.60;99.90
47600;DHT22;33323;52.124;6.018;2022-12-29T09:26:25;9.50;99.90
47600;DHT22;33323;52.124;6.018;2022-12-29T09:28:53;9.50;99.90
47600;DHT22;33323;52.124;6.018;2022-12-29T09:31:20;9.50;99.90
47600;DHT22;33323;52.124;6.018;2022-12-29T09:33:47;9.50;99.90
47600;DHT22;33323;52.124;6.018;2022-12-29T09:36:14;9.50;99.90
47600;DHT22;33323;52.124;6.018;2022-12-29T09:38:42;9.40;99.90
47600;DHT22;33323;52.124;6.018;2022-12-29T09:41:26;9.50;99.90
47600;DHT22;33323;52.124;6.018;2022-12-29T09:44:06;9.60;99.90
47600;DHT22;33323;52.124;6.018;2022-12-29T09:46:43;9.60;99.90
47600;DHT22;33323;52.124;6.018;2022-12-29T09:51:55;9.60;99.90
47600;DHT22;33323;52.124;6.018;2022-12-29T09:57:24;9.70;99.90
47600;DHT22;33323;52.124;6.018;2022-12-29T10:00:22;9.70;99.90
47600;DHT22;33323;52.124;6.018;2022-12-29T10:03:01;9.60;99.90
47600;DHT22;33323;52.124;6.018;2022-12-29T10:06:06;9.50;99.90
47600;DHT22;33323;52.124;6.018;2022-12-29T10:08:49;9.50;99.90
47600;DHT22;33323;52.124;6.018;2022-12-29T10:11:38;9.40;99.90
47600;DHT22;33323;52.124;6.018;2022-12-29T10:17:29;9.30;99.90
47600;DHT22;33323;52.124;6.018;2022-12-29T10:20:12;9.20;99.90
47600;DHT22;33323;52.124;6.018;2022-12-29T10:25:57;9.20;99.90
47600;DHT22;33323;52.124;6.018;2022-12-29T10:31:44;9.00;99.90
47600;DHT22;33323;52.124;6.018;2022-12-29T10:34:29;9.00;99.90
47600;DHT22;33323;52.124;6.018;2022-12-29T10:37:05;8.90;99.90
47600;DHT22;33323;52.124;6.018;2022-12-29T10:39:49;8.90;99.90
47600;DHT22;33323;52.124;6.018;2022-12-29T10:44:58;8.90;99.90
47600;DHT22;33323;52.124;6.018;2022-12-29T10:47:31;8.90;99.90
47600;DHT22;33323;52.124;6.018;2022-12-29T10:50:02;8.90;99.90
47600;DHT22;33323;52.124;6.018;2022-12-29T10:52:30;9.00;99.90
47600;DHT22;33323;52.124;6.018;2022-12-29T10:55:12;9.00;99.90
47600;DHT22;33323;52.124;6.018;2022-12-29T10:57:44;9.00;99.90
47600;DHT22;33323;52.124;6.018;2022-12-29T11:00:13;8.90;99.90
47600;DHT22;33323;52.124;6.018;2022-12-29T11:03:11;8.90;99.90
47600;DHT22;33323;52.124;6.018;2022-12-29T11:09:31;8.90;99.90
47600;DHT22;33323;52.124;6.018;2022-12-29T11:12:24;8.90;99.90
47600;DHT22;33323;52.124;6.018;2022-12-29T11:15:13;8.90;99.90
47600;DHT22;33323;52.124;6.018;2022-12-29T11:17:55;8.90;99.90
47600;DHT22;33323;52.124;6.018;2022-12-29T11:20:51;8.90;99.90
47600;DHT22;33323;52.124;6.018;2022-12-29T11:26:15;8.90;99.90
47600;DHT22;33323;52.124;6.018;2022-12-29T11:31:45;9.00;99.90
47600;DHT22;33323;52.124;6.018;2022-12-29T11:34:23;9.00;99.90
47600;DHT22;33323;52.124;6.018;2022-12-29T11:37:02;9.10;99.90
47600;DHT22;33323;52.124;6.018;2022-12-29T11:39:38;9.10;99.90
47600;DHT22;33323;52.124;6.018;2022-12-29T11:42:15;9.20;99.90
47600;DHT22;33323;52.124;6.018;2022-12-29T11:44:46;9.30;99.90
47600;DHT22;33323;52.124;6.018;2022-12-29T11:47:30;9.20;99.90
47600;DHT22;33323;52.124;6.018;2022-12-29T11:50:00;9.20;99.90
47600;DHT22;33323;52.124;6.018;2022-12-29T11:52:33;9.10;99.90
47600;DHT22;33323;52.124;6.018;2022-12-29T11:55:05;9.20;99.90
47600;DHT22;33323;52.124;6.018;2022-12-29T11:57:46;9.10;99.90
47600;DHT22;33323;52.124;6.018;2022-12-29T12:00:24;9.10;99.90
47600;DHT22;33323;52.124;6.018;2022-12-29T12:03:16;9.10;99.90
47600;DHT22;33323;52.124;6.018;2022-12-29T12:05:56;9.00;99.90
47600;DHT22;33323;52.124;6.018;2022-12-29T12:11:36;9.00;99.90
47600;DHT22;33323;52.124;6.018;2022-12-29T12:14:17;9.00;99.90
47600;DHT22;33323;52.124;6.018;2022-12-29T12:17:21;9.00;99.90
47600;DHT22;33323;52.124;6.018;2022-12-29T12:20:03;8.90;99.90
47600;DHT22;33323;52.124;6.018;2022-12-29T12:22:50;8.90;99.90
47600;DHT22;33323;52.124;6.018;2022-12-29T12:25:25;8.80;99.90
47600;DHT22;33323;52.124;6.018;2022-12-29T12:28:11;8.90;99.90
47600;DHT22;33323;52.124;6.018;2022-12-29T12:30:48;8.80;99.90
47600;DHT22;33323;52.124;6.018;2022-12-29T12:33:31;8.80;99.90
47600;DHT22;33323;52.124;6.018;2022-12-29T12:36:25;8.80;99.90
47600;DHT22;33323;52.124;6.018;2022-12-29T12:39:30;8.70;99.90
47600;DHT22;33323;52.124;6.018;2022-12-29T12:54:16;8.90;99.90
47600;DHT22;33323;52.124;6.018;2022-12-29T13:00:17;8.90;99.90
47600;DHT22;33323;52.124;6.018;2022-12-29T13:03:15;9.00;99.90
47600;DHT22;33323;52.124;6.018;2022-12-29T13:06:30;9.10;99.90
47600;DHT22;33323;52.124;6.018;2022-12-29T13:09:25;9.20;99.90
47600;DHT22;33323;52.124;6.018;2022-12-29T13:12:37;9.20;99.90
47600;DHT22;33323;52.124;6.018;2022-12-29T13:15:12;9.20;99.90
47600;DHT22;33323;52.124;6.018;2022-12-29T13:17:55;9.20;99.90
47600;DHT22;33323;52.124;6.018;2022-12-29T13:29:32;9.30;99.90
47600;DHT22;33323;52.124;6.018;2022-12-29T13:38:07;9.30;99.90
47600;DHT22;33323;52.124;6.018;2022-12-29T13:40:44;9.30;99.90
47600;DHT22;33323;52.124;6.018;2022-12-29T13:43:14;9.30;99.90
47600;DHT22;33323;52.124;6.018;2022-12-29T13:45:43;9.40;99.90
47600;DHT22;33323;52.124;6.018;2022-12-29T13:50:54;9.40;99.90
47600;DHT22;33323;52.124;6.018;2022-12-29T13:56:30;9.40;99.90
47600;DHT22;33323;52.124;6.018;2022-12-29T14:05:01;9.40;99.90
47600;DHT22;33323;52.124;6.018;2022-12-29T14:07:37;9.40;99.90
47600;DHT22;33323;52.124;6.018;2022-12-29T14:10:05;9.40;99.90
47600;DHT22;33323;52.124;6.018;2022-12-29T14:12:41;9.30;99.90
47600;DHT22;33323;52.124;6.018;2022-12-29T14:17:43;9.40;99.90
47600;DHT22;33323;52.124;6.018;2022-12-29T14:20:22;9.40;99.90
47600;DHT22;33323;52.124;6.018;2022-12-29T14:23:14;9.40;99.90
47600;DHT22;33323;52.124;6.018;2022-12-29T14:28:38;9.30;99.90
47600;DHT22;33323;52.124;6.018;2022-12-29T14:34:15;9.30;99.90
47600;DHT22;33323;52.124;6.018;2022-12-29T14:36:53;9.30;99.90
47600;DHT22;33323;52.124;6.018;2022-12-29T14:39:41;9.30;99.90
47600;DHT22;33323;52.124;6.018;2022-12-29T14:50:52;9.20;99.90
47600;DHT22;33323;52.124;6.018;2022-12-29T14:53:06;9.10;99.90
47600;DHT22;33323;52.124;6.018;2022-12-29T14:58:28;9.10;99.90
47600;DHT22;33323;52.124;6.018;2022-12-29T15:00:57;9.00;99.90
47600;DHT22;33323;52.124;6.018;2022-12-29T15:03:49;8.90;99.90
47600;DHT22;33323;52.124;6.018;2022-12-29T15:06:18;8.80;99.90
47600;DHT22;33323;52.124;6.018;2022-12-29T15:09:14;8.70;99.90
47600;DHT22;33323;52.124;6.018;2022-12-29T15:12:06;8.60;99.90
47600;DHT22;33323;52.124;6.018;2022-12-29T15:14:54;8.60;99.90
47600;DHT22;33323;52.124;6.018;2022-12-29T15:17:34;8.60;99.90
47600;DHT22;33323;52.124;6.018;2022-12-29T15:20:19;8.60;99.90
47600;DHT22;33323;52.124;6.018;2022-12-29T15:22:54;8.60;99.90
47600;DHT22;33323;52.124;6.018;2022-12-29T15:25:23;8.60;99.90
47600;DHT22;33323;52.124;6.018;2022-12-29T15:28:03;8.60;99.90
47600;DHT22;33323;52.124;6.018;2022-12-29T15:30:32;8.60;99.90
47600;DHT22;33323;52.124;6.018;2022-12-29T15:32:59;8.60;99.90
47600;DHT22;33323;52.124;6.018;2022-12-29T15:35:35;8.60;99.90
47600;DHT22;33323;52.124;6.018;2022-12-29T15:38:13;8.60;99.90
47600;DHT22;33323;52.124;6.018;2022-12-29T15:40:45;8.60;99.90
47600;DHT22;33323;52.124;6.018;2022-12-29T15:45:43;8.60;99.90
47600;DHT22;33323;52.124;6.018;2022-12-29T15:48:18;8.50;99.90
47600;DHT22;33323;52.124;6.018;2022-12-29T15:50:47;8.60;99.90
47600;DHT22;33323;52.124;6.018;2022-12-29T15:56:09;8.60;99.90
47600;DHT22;33323;52.124;6.018;2022-12-29T15:58:42;8.60;99.90
47600;DHT22;33323;52.124;6.018;2022-12-29T16:01:31;8.60;99.90
47600;DHT22;33323;52.124;6.018;2022-12-29T16:04:04;8.70;99.90
47600;DHT22;33323;52.124;6.018;2022-12-29T16:06:35;8.70;99.90
47600;DHT22;33323;52.124;6.018;2022-12-29T16:09:15;8.70;99.90
47600;DHT22;33323;52.124;6.018;2022-12-29T16:11:51;8.70;99.90
47600;DHT22;33323;52.124;6.018;2022-12-29T16:14:34;8.70;99.90
47600;DHT22;33323;52.124;6.018;2022-12-29T16:17:14;8.70;99.90
47600;DHT22;33323;52.124;6.018;2022-12-29T16:19:54;8.70;99.90
47600;DHT22;33323;52.124;6.018;2022-12-29T16:25:24;8.70;99.90
47600;DHT22;33323;52.124;6.018;2022-12-29T16:27:52;8.80;99.90
47600;DHT22;33323;52.124;6.018;2022-12-29T16:30:26;8.80;99.90
47600;DHT22;33323;52.124;6.018;2022-12-29T16:33:02;8.80;99.90
47600;DHT22;33323;52.124;6.018;2022-12-29T16:38:15;8.80;99.90
47600;DHT22;33323;52.124;6.018;2022-12-29T16:40:55;8.80;99.90
47600;DHT22;33323;52.124;6.018;2022-12-29T16:43:25;8.80;99.90
47600;DHT22;33323;52.124;6.018;2022-12-29T16:48:21;8.80;99.90
47600;DHT22;33323;52.124;6.018;2022-12-29T16:51:15;9.00;99.90
47600;DHT22;33323;52.124;6.018;2022-12-29T16:53:52;8.90;99.90
47600;DHT22;33323;52.124;6.018;2022-12-29T16:56:25;8.80;99.90
47600;DHT22;33323;52.124;6.018;2022-12-29T17:02:10;8.70;99.90
47600;DHT22;33323;52.124;6.018;2022-12-29T17:04:41;8.70;99.90
47600;DHT22;33323;52.124;6.018;2022-12-29T17:07:23;8.70;99.90
47600;DHT22;33323;52.124;6.018;2022-12-29T17:09:52;8.60;99.90
47600;DHT22;33323;52.124;6.018;2022-12-29T17:12:23;8.60;99.90
47600;DHT22;33323;52.124;6.018;2022-12-29T17:15:19;8.60;99.90
47600;DHT22;33323;52.124;6.018;2022-12-29T17:17:48;8.60;99.90
47600;DHT22;33323;52.124;6.018;2022-12-29T17:20:18;8.60;99.90
47600;DHT22;33323;52.124;6.018;2022-12-29T17:22:47;8.60;99.90
47600;DHT22;33323;52.124;6.018;2022-12-29T17:25:18;8.50;99.90
47600;DHT22;33323;52.124;6.018;2022-12-29T17:27:56;8.50;99.90
47600;DHT22;33323;52.124;6.018;2022-12-29T17:30:26;8.40;99.90
47600;DHT22;33323;52.124;6.018;2022-12-29T17:33:06;8.40;99.90
47600;DHT22;33323;52.124;6.018;2022-12-29T17:35:35;8.40;99.90
47600;DHT22;33323;52.124;6.018;2022-12-29T17:38:10;8.30;99.90
47600;DHT22;33323;52.124;6.018;2022-12-29T17:40:43;8.30;99.90
47600;DHT22;33323;52.124;6.018;2022-12-29T17:43:13;8.30;99.90
47600;DHT22;33323;52.124;6.018;2022-12-29T17:45:41;8.20;99.90
47600;DHT22;33323;52.124;6.018;2022-12-29T17:48:12;8.10;99.90
47600;DHT22;33323;52.124;6.018;2022-12-29T17:50:41;8.10;99.90
47600;DHT22;33323;52.124;6.018;2022-12-29T17:53:20;8.10;99.90
47600;DHT22;33323;52.124;6.018;2022-12-29T17:55:48;8.10;99.90
47600;DHT22;33323;52.124;6.018;2022-12-29T17:58:28;8.00;99.90
47600;DHT22;33323;52.124;6.018;2022-12-29T18:00:59;8.00;99.90
47600;DHT22;33323;52.124;6.018;2022-12-29T18:03:31;8.00;99.90
47600;DHT22;33323;52.124;6.018;2022-12-29T18:06:00;8.00;99.90
47600;DHT22;33323;52.124;6.018;2022-12-29T18:08:28;7.90;99.90
47600;DHT22;33323;52.124;6.018;2022-12-29T18:10:55;7.90;99.90
47600;DHT22;33323;52.124;6.018;2022-12-29T18:13:28;7.90;99.90
47600;DHT22;33323;52.124;6.018;2022-12-29T18:16:11;7.90;99.90
47600;DHT22;33323;52.124;6.018;2022-12-29T18:18:39;7.80;99.90
47600;DHT22;33323;52.124;6.018;2022-12-29T18:21:14;7.80;99.90
47600;DHT22;33323;52.124;6.018;2022-12-29T18:23:46;7.80;99.90
47600;DHT22;33323;52.124;6.018;2022-12-29T18:26:19;7.80;99.90
47600;DHT22;33323;52.124;6.018;2022-12-29T18:28:55;7.80;99.90
47600;DHT22;33323;52.124;6.018;2022-12-29T18:31:27;7.80;99.90
47600;DHT22;33323;52.124;6.018;2022-12-29T18:33:57;7.70;99.90
47600;DHT22;33323;52.124;6.018;2022-12-29T18:36:26;7.80;99.90
47600;DHT22;33323;52.124;6.018;2022-12-29T18:38:54;7.80;99.90
47600;DHT22;33323;52.124;6.018;2022-12-29T18:41:26;7.90;99.90
47600;DHT22;33323;52.124;6.018;2022-12-29T18:43:58;7.90;99.90
47600;DHT22;33323;52.124;6.018;2022-12-29T18:46:26;7.90;99.90
47600;DHT22;33323;52.124;6.018;2022-12-29T18:48:53;7.90;99.90
47600;DHT22;33323;52.124;6.018;2022-12-29T18:51:22;8.00;99.90
47600;DHT22;33323;52.124;6.018;2022-12-29T18:53:50;7.90;99.90